createdAt,value
2023-06-04T00:00:55.484Z,96203.91
2023-06-04T00:03:23.940Z,96206.03
2023-06-04T00:05:52.326Z,96198.53
2023-06-04T00:08:20.974Z,96203.28
2023-06-04T00:10:49.313Z,96193.09
2023-06-04T00:13:17.659Z,96190.13
2023-06-04T00:15:45.965Z,96187.47
2023-06-04T00:18:15.871Z,96178.31
2023-06-04T00:20:44.421Z,96179.84
2023-06-04T00:23:12.763Z,96179.75
2023-06-04T00:25:41.058Z,96166.38
2023-06-04T00:28:09.385Z,96167.66
2023-06-04T00:30:37.727Z,96168.34
2023-06-04T00:33:06.391Z,96170.44
2023-06-04T00:35:36.432Z,96175.44
2023-06-04T00:38:04.748Z,96179.13
2023-06-04T00:40:33.031Z,96174.03
2023-06-04T00:43:01.339Z,96170.25
2023-06-04T00:45:32.434Z,96164.59
2023-06-04T00:48:01.446Z,96167.25
2023-06-04T00:50:30.017Z,96171.44
2023-06-04T00:52:59.760Z,96164.97
2023-06-04T00:55:28.136Z,96166.47
2023-06-04T00:57:56.543Z,96165.91
2023-06-04T01:00:24.919Z,96168.81
2023-06-04T01:02:54.904Z,96166.84
2023-06-04T01:05:26.928Z,96167.06
2023-06-04T01:07:55.226Z,96170.22
2023-06-04T01:10:25.133Z,96170.22
2023-06-04T01:12:53.513Z,96164.41
2023-06-04T01:15:22.118Z,96162.25
2023-06-04T01:17:52.724Z,96158.41
2023-06-04T01:20:28.202Z,96162.03
2023-06-04T01:23:07.979Z,96155.09
2023-06-04T01:25:40.331Z,96158.78
2023-06-04T01:28:09.155Z,96158.78
2023-06-04T01:30:43.796Z,96157.53
2023-06-04T01:33:12.517Z,96157.63
2023-06-04T01:35:40.968Z,96158.94
2023-06-04T01:38:09.327Z,96159.97
2023-06-04T01:40:39.057Z,96162.72
2023-06-04T01:43:07.984Z,96161.13
2023-06-04T01:45:36.364Z,96173.25
2023-06-04T01:48:05.308Z,96166.78
2023-06-04T01:50:33.685Z,96166.78
2023-06-04T01:53:02.030Z,96176.84
2023-06-04T01:55:34.644Z,96173.25
2023-06-04T01:58:04.864Z,96181.69
2023-06-04T02:00:33.421Z,96172.22
2023-06-04T02:03:01.883Z,96175.31
2023-06-04T02:05:30.304Z,96178.78
2023-06-04T02:07:58.641Z,96172.31
2023-06-04T02:10:27.906Z,96175.19
2023-06-04T02:12:57.480Z,96177.25
2023-06-04T02:15:27.838Z,96174.81
2023-06-04T02:18:00.774Z,96170.69
2023-06-04T02:20:29.337Z,96171.97
2023-06-04T02:22:57.828Z,96177.72
2023-06-04T02:25:28.556Z,96181.84
2023-06-04T02:27:57.712Z,96179.69
2023-06-04T02:30:27.454Z,96187.16
2023-06-04T02:32:56.216Z,96179.69
2023-06-04T02:35:25.928Z,96186.03
2023-06-04T02:37:54.454Z,96184.84
2023-06-04T02:40:22.806Z,96183.22
2023-06-04T02:42:51.216Z,96181.06
2023-06-04T02:45:19.560Z,96179.66
2023-06-04T02:47:49.460Z,96183.47
2023-06-04T02:50:17.824Z,96190.59
2023-06-04T02:52:46.625Z,96193.72
2023-06-04T02:55:15.145Z,96189.66
2023-06-04T02:57:44.450Z,96195.19
2023-06-04T03:00:14.477Z,96190.13
2023-06-04T03:02:43.618Z,96192.78
2023-06-04T03:05:14.202Z,96192.78
2023-06-04T03:07:46.095Z,96192.19
2023-06-04T03:10:15.026Z,96191.38
2023-06-04T03:12:43.310Z,96198.63
2023-06-04T03:15:12.172Z,96199.66
2023-06-04T03:17:41.284Z,96202.88
2023-06-04T03:20:10.641Z,96198.63
2023-06-04T03:22:40.812Z,96203.47
2023-06-04T03:25:09.735Z,96203.69
2023-06-04T03:27:38.187Z,96205.53
2023-06-04T03:30:09.195Z,96211.44
2023-06-04T03:32:48.756Z,96211.44
2023-06-04T03:35:18.226Z,96212.00
2023-06-04T03:37:47.914Z,96215.03
2023-06-04T03:40:17.017Z,96210.88
2023-06-04T03:42:47.198Z,96209.41
2023-06-04T03:45:16.820Z,96215.03
2023-06-04T03:47:48.190Z,96210.09
2023-06-04T03:50:16.972Z,96208.84
2023-06-04T03:52:45.386Z,96208.38
2023-06-04T03:55:15.232Z,96211.63
2023-06-04T03:57:44.372Z,96213.81
2023-06-04T04:00:14.894Z,96211.28
2023-06-04T04:02:43.470Z,96205.88
2023-06-04T04:05:20.071Z,96203.13
2023-06-04T04:07:50.472Z,96206.69
2023-06-04T04:10:24.032Z,96212.25
2023-06-04T04:12:54.881Z,96211.38
2023-06-04T04:15:24.319Z,96213.91
2023-06-04T04:17:53.891Z,96213.78
2023-06-04T04:20:22.594Z,96213.47
2023-06-04T04:22:58.559Z,96208.59
2023-06-04T04:25:30.033Z,96211.13
2023-06-04T04:28:01.802Z,96208.47
2023-06-04T04:30:31.596Z,96209.50
2023-06-04T04:33:00.249Z,96211.31
2023-06-04T04:35:35.705Z,96204.09
2023-06-04T04:38:06.142Z,96202.44
2023-06-04T04:40:42.174Z,96197.91
2023-06-04T04:43:13.197Z,96196.00
2023-06-04T04:45:41.565Z,96200.22
2023-06-04T04:48:12.275Z,96191.94
2023-06-04T04:50:40.600Z,96200.75
2023-06-04T04:53:09.323Z,96196.75
2023-06-04T04:55:39.587Z,96192.78
2023-06-04T04:58:09.777Z,96195.44
2023-06-04T05:00:38.673Z,96194.84
2023-06-04T05:03:07.169Z,96198.56
2023-06-04T05:05:35.902Z,96202.00
2023-06-04T05:08:06.748Z,96196.63
2023-06-04T05:10:40.694Z,96204.53
2023-06-04T05:13:12.363Z,96203.16
2023-06-04T05:15:55.484Z,96201.03
2023-06-04T05:18:29.918Z,96206.59
2023-06-04T05:21:03.703Z,96202.47
2023-06-04T05:23:35.672Z,96209.31
2023-06-04T05:26:05.519Z,96204.13
2023-06-04T05:28:35.719Z,96203.50
2023-06-04T05:31:05.832Z,96206.31
2023-06-04T05:33:36.389Z,96206.13
2023-06-04T05:36:09.906Z,96212.94
2023-06-04T05:38:44.849Z,96213.53
2023-06-04T05:41:15.675Z,96208.25
2023-06-04T05:43:46.053Z,96198.66
2023-06-04T05:46:17.738Z,96212.34
2023-06-04T05:48:47.258Z,96213.47
2023-06-04T05:51:16.694Z,96214.81
2023-06-04T05:53:45.967Z,96208.91
2023-06-04T05:56:14.393Z,96206.19
2023-06-04T05:58:45.196Z,96210.16
2023-06-04T06:01:14.592Z,96213.88
2023-06-04T06:03:43.366Z,96216.97
2023-06-04T06:06:11.885Z,96224.34
2023-06-04T06:08:40.921Z,96229.81
2023-06-04T06:11:11.323Z,96227.75
2023-06-04T06:13:40.218Z,96234.06
2023-06-04T06:16:11.934Z,96238.59
2023-06-04T06:18:40.863Z,96239.88
2023-06-04T06:21:09.694Z,96245.91
2023-06-04T06:23:39.000Z,96253.84
2023-06-04T06:26:09.389Z,96261.97
2023-06-04T06:28:44.465Z,96241.69
2023-06-04T06:31:14.990Z,96247.66
2023-06-04T06:33:43.596Z,96255.88
2023-06-04T06:36:12.707Z,96264.34
2023-06-04T06:38:41.354Z,96255.28
2023-06-04T06:41:10.026Z,96259.81
2023-06-04T06:43:38.525Z,96267.50
2023-06-04T06:46:07.316Z,96269.28
2023-06-04T06:48:37.271Z,96268.78
2023-06-04T06:51:05.994Z,96272.09
2023-06-04T06:53:34.459Z,96265.84
2023-06-04T06:56:02.828Z,96270.38
2023-06-04T06:58:31.171Z,96274.84
2023-06-04T07:00:59.975Z,96269.75
2023-06-04T07:03:28.689Z,96270.28
2023-06-04T07:05:58.603Z,96280.47
2023-06-04T07:08:27.012Z,96274.34
2023-06-04T07:10:55.476Z,96269.34
2023-06-04T07:13:23.971Z,96276.34
2023-06-04T07:15:52.292Z,96275.47
2023-06-04T07:18:20.888Z,96271.56
2023-06-04T07:20:49.194Z,96278.59
2023-06-04T07:23:18.927Z,96280.06
2023-06-04T07:25:47.297Z,96283.75
2023-06-04T07:28:16.291Z,96275.06
2023-06-04T07:30:44.651Z,96271.34
2023-06-04T07:33:12.924Z,96272.22
2023-06-04T07:35:41.235Z,96271.06
2023-06-04T07:38:09.530Z,96277.53
2023-06-04T07:40:39.304Z,96271.19
2023-06-04T07:43:07.891Z,96271.44
2023-06-04T07:45:36.523Z,96274.19
2023-06-04T07:48:05.041Z,96277.75
2023-06-04T07:50:36.102Z,96275.16
2023-06-04T07:53:05.995Z,96266.09
2023-06-04T07:55:34.733Z,96268.78
2023-06-04T07:58:06.337Z,96276.47
2023-06-04T08:00:34.973Z,96269.28
2023-06-04T08:03:03.349Z,96270.16
2023-06-04T08:05:32.297Z,96264.22
2023-06-04T08:08:01.307Z,96259.34
2023-06-04T08:10:29.593Z,96269.00
2023-06-04T08:12:57.885Z,96266.78
2023-06-04T08:15:27.564Z,96277.28
2023-06-04T08:17:55.896Z,96269.72
2023-06-04T08:20:25.930Z,96267.59
2023-06-04T08:22:56.252Z,96265.06
2023-06-04T08:25:24.570Z,96280.09
2023-06-04T08:27:52.940Z,96275.50
2023-06-04T08:30:21.409Z,96283.75
2023-06-04T08:32:51.423Z,96279.53
2023-06-04T08:35:19.991Z,96285.22
2023-06-04T08:37:48.817Z,96284.09
2023-06-04T08:40:17.164Z,96286.22
2023-06-04T08:42:46.554Z,96283.22
2023-06-04T08:45:16.462Z,96280.19
2023-06-04T08:47:46.738Z,96279.72
2023-06-04T08:50:17.158Z,96293.00
2023-06-04T08:52:45.473Z,96287.56
2023-06-04T08:55:15.039Z,96292.06
2023-06-04T08:57:44.498Z,96298.16
2023-06-04T09:00:14.187Z,96294.28
2023-06-04T09:02:42.942Z,96283.88
2023-06-04T09:05:11.741Z,96279.50
2023-06-04T09:07:42.140Z,96280.56
2023-06-04T09:10:13.853Z,96278.97
2023-06-04T09:12:44.494Z,96291.59
2023-06-04T09:15:12.847Z,96288.47
2023-06-04T09:17:41.907Z,96283.03
2023-06-04T09:20:10.906Z,96286.44
2023-06-04T09:22:39.531Z,96289.31
2023-06-04T09:25:10.988Z,96292.31
2023-06-04T09:27:42.690Z,96294.19
2023-06-04T09:30:12.325Z,96293.97
2023-06-04T09:32:40.914Z,96294.22
2023-06-04T09:35:13.921Z,96293.41
2023-06-04T09:37:42.408Z,96288.09
2023-06-04T09:40:13.015Z,96292.59
2023-06-04T09:42:45.879Z,96294.38
2023-06-04T09:45:14.418Z,96292.22
2023-06-04T09:47:43.875Z,96304.63
2023-06-04T09:50:13.071Z,96297.75
2023-06-04T09:52:41.959Z,96297.78
2023-06-04T09:55:23.293Z,96301.13
2023-06-04T09:57:53.000Z,96295.81
2023-06-04T10:00:22.352Z,96291.88
2023-06-04T10:02:51.010Z,96297.94
2023-06-04T10:05:22.818Z,96304.69
2023-06-04T10:07:52.961Z,96301.34
2023-06-04T10:10:24.674Z,96307.91
2023-06-04T10:12:55.940Z,96300.84
2023-06-04T10:15:24.239Z,96294.38
2023-06-04T10:17:52.617Z,96287.53
2023-06-04T10:20:21.727Z,96283.16
2023-06-04T10:22:50.002Z,96289.56
2023-06-04T10:25:18.384Z,96292.94
2023-06-04T10:27:48.247Z,96294.41
2023-06-04T10:30:16.651Z,96283.75
2023-06-04T10:32:45.166Z,96294.13
2023-06-04T10:35:15.551Z,96292.13
2023-06-04T10:37:44.309Z,96287.91
2023-06-04T10:40:13.236Z,96292.97
2023-06-04T10:42:42.697Z,96280.91
2023-06-04T10:45:13.367Z,96281.97
2023-06-04T10:47:42.448Z,96282.94
2023-06-04T10:50:12.327Z,96281.00
2023-06-04T10:52:41.198Z,96287.66
2023-06-04T10:55:10.610Z,96289.97
2023-06-04T10:57:42.778Z,96282.88
2023-06-04T11:00:14.008Z,96279.16
2023-06-04T11:02:55.104Z,96286.63
2023-06-04T11:05:23.600Z,96292.63
2023-06-04T11:07:52.103Z,96290.53
2023-06-04T11:10:20.461Z,96286.56
2023-06-04T11:12:51.570Z,96288.44
2023-06-04T11:15:21.531Z,96285.22
2023-06-04T11:17:52.862Z,96283.31
2023-06-04T11:20:21.716Z,96274.56
2023-06-04T11:22:54.365Z,96277.09
2023-06-04T11:25:23.498Z,96279.53
2023-06-04T11:27:52.357Z,96268.38
2023-06-04T11:30:22.154Z,96274.59
2023-06-04T11:32:51.568Z,96270.13
2023-06-04T11:35:20.098Z,96275.16
2023-06-04T11:37:55.847Z,96264.06
2023-06-04T11:40:24.300Z,96267.75
2023-06-04T11:42:52.662Z,96265.28
2023-06-04T11:45:23.512Z,96268.97
2023-06-04T11:47:53.852Z,96268.44
2023-06-04T11:50:22.342Z,96263.75
2023-06-04T11:52:50.656Z,96267.56
2023-06-04T11:55:21.949Z,96267.38
2023-06-04T11:57:51.164Z,96270.50
2023-06-04T12:00:20.493Z,96264.09
2023-06-04T12:02:54.804Z,96266.69
2023-06-04T12:05:25.193Z,96259.59
2023-06-04T12:07:53.665Z,96257.56
2023-06-04T12:10:22.091Z,96268.41
2023-06-04T12:12:56.702Z,96274.38
2023-06-04T12:15:25.190Z,96255.50
2023-06-04T12:17:55.500Z,96255.53
2023-06-04T12:20:37.400Z,96254.22
2023-06-04T12:23:05.956Z,96282.47
2023-06-04T12:25:34.629Z,96267.56
2023-06-04T12:28:04.149Z,96265.72
2023-06-04T12:30:38.843Z,96256.72
2023-06-04T12:33:08.660Z,96268.34
2023-06-04T12:35:37.489Z,96265.78
2023-06-04T12:38:06.516Z,96261.69
2023-06-04T12:40:35.413Z,96258.91
2023-06-04T12:43:03.773Z,96254.81
2023-06-04T12:45:32.100Z,96268.69
2023-06-04T12:48:00.549Z,96271.16
2023-06-04T12:50:30.314Z,96260.91
2023-06-04T12:52:58.908Z,96248.47
2023-06-04T12:55:28.356Z,96256.69
2023-06-04T12:57:56.970Z,96260.53
2023-06-04T13:00:25.292Z,96260.91
2023-06-04T13:02:53.703Z,96260.78
2023-06-04T13:05:22.083Z,96245.75
2023-06-04T13:07:52.703Z,96255.84
2023-06-04T13:10:21.722Z,96242.53
2023-06-04T13:12:50.470Z,96243.84
2023-06-04T13:15:19.057Z,96244.88
2023-06-04T13:17:47.388Z,96237.16
2023-06-04T13:20:16.101Z,96244.56
2023-06-04T13:22:45.191Z,96248.91
2023-06-04T13:25:14.988Z,96245.59
2023-06-04T13:27:43.339Z,96242.84
2023-06-04T13:30:12.673Z,96243.91
2023-06-04T13:32:41.180Z,96243.34
2023-06-04T13:35:10.371Z,96242.41
2023-06-04T13:37:38.683Z,96243.50
2023-06-04T13:40:08.706Z,96238.44
2023-06-04T13:42:38.596Z,96240.91
2023-06-04T13:45:08.124Z,96237.72
2023-06-04T13:47:36.923Z,96225.28
2023-06-04T13:50:05.809Z,96227.97
2023-06-04T13:52:34.083Z,96224.78
2023-06-04T13:55:02.424Z,96221.25
2023-06-04T13:57:30.796Z,96230.38
2023-06-04T14:00:00.519Z,96221.63
2023-06-04T14:02:29.194Z,96220.69
2023-06-04T14:04:57.555Z,96222.91
2023-06-04T14:07:25.970Z,96221.19
2023-06-04T14:09:55.973Z,96225.75
2023-06-04T14:12:24.553Z,96225.19
2023-06-04T14:14:52.906Z,96216.44
2023-06-04T14:17:24.075Z,96219.50
2023-06-04T14:19:52.403Z,96221.19
2023-06-04T14:22:20.736Z,96224.03
2023-06-04T14:24:49.022Z,96226.22
2023-06-04T14:27:17.309Z,96226.09
2023-06-04T14:29:45.980Z,96229.88
2023-06-04T14:32:14.258Z,96225.44
2023-06-04T14:34:43.977Z,96222.66
2023-06-04T14:37:12.378Z,96225.06
2023-06-04T14:39:40.700Z,96212.22
2023-06-04T14:42:09.106Z,96220.84
2023-06-04T14:44:37.441Z,96217.00
2023-06-04T14:47:06.435Z,96209.13
2023-06-04T14:49:34.733Z,96217.41
2023-06-04T14:52:04.740Z,96218.81
2023-06-04T14:54:33.095Z,96216.09
2023-06-04T14:57:02.205Z,96217.78
2023-06-04T14:59:30.789Z,96212.16
2023-06-04T15:01:59.332Z,96215.94
2023-06-04T15:04:27.711Z,96210.50
2023-06-04T15:06:56.038Z,96220.88
2023-06-04T15:09:25.727Z,96211.56
2023-06-04T15:11:54.325Z,96214.16
2023-06-04T15:14:22.726Z,96214.78
2023-06-04T15:16:51.126Z,96214.91
2023-06-04T15:19:19.428Z,96211.47
2023-06-04T15:21:47.788Z,96212.78
2023-06-04T15:24:16.319Z,96221.47
2023-06-04T15:26:46.157Z,96218.47
2023-06-04T15:29:14.486Z,96212.56
2023-06-04T15:31:42.753Z,96217.09
2023-06-04T15:34:11.130Z,96216.50
2023-06-04T15:36:39.775Z,96220.94
2023-06-04T15:39:08.556Z,96218.69
2023-06-04T15:41:36.902Z,96216.22
2023-06-04T15:44:07.581Z,96206.16
2023-06-04T15:46:36.026Z,96210.28
2023-06-04T15:49:06.982Z,96200.47
2023-06-04T15:51:36.466Z,96206.63
2023-06-04T15:54:05.644Z,96204.59
2023-06-04T15:56:34.069Z,96206.44
2023-06-04T15:59:02.414Z,96210.97
2023-06-04T16:01:32.216Z,96209.63
2023-06-04T16:04:00.585Z,96213.47
2023-06-04T16:06:29.276Z,96210.75
2023-06-04T16:08:57.589Z,96201.63
2023-06-04T16:11:27.138Z,96206.88
2023-06-04T16:13:55.609Z,96203.66
2023-06-04T16:16:24.061Z,96203.09
2023-06-04T16:18:54.284Z,96202.41
2023-06-04T16:21:22.980Z,96198.19
2023-06-04T16:23:52.445Z,96193.31
2023-06-04T16:26:20.872Z,96193.19
2023-06-04T16:28:49.187Z,96200.44
2023-06-04T16:31:17.593Z,96199.44
2023-06-04T16:33:47.527Z,96196.16
2023-06-04T16:36:17.315Z,96197.44
2023-06-04T16:38:45.645Z,96193.66
2023-06-04T16:41:14.597Z,96196.50
2023-06-04T16:43:43.011Z,96197.44
2023-06-04T16:46:11.654Z,96195.38
2023-06-04T16:48:40.389Z,96192.75
2023-06-04T16:51:08.720Z,96191.03
2023-06-04T16:53:38.514Z,96198.69
2023-06-04T16:56:07.160Z,96190.69
2023-06-04T16:58:39.211Z,96193.75
2023-06-04T17:01:11.466Z,96188.88
2023-06-04T17:03:40.075Z,96189.88
2023-06-04T17:06:08.733Z,96187.50
2023-06-04T17:08:38.643Z,96189.97
2023-06-04T17:11:06.942Z,96193.03
2023-06-04T17:13:35.224Z,96193.28
2023-06-04T17:16:03.878Z,96197.41
2023-06-04T17:18:32.190Z,96188.09
2023-06-04T17:21:00.770Z,96190.88
2023-06-04T17:23:29.168Z,96184.78
2023-06-04T17:26:00.671Z,96193.06
2023-06-04T17:28:29.515Z,96195.06
2023-06-04T17:30:57.914Z,96191.00
2023-06-04T17:33:26.230Z,96190.50
2023-06-04T17:35:54.566Z,96193.63
2023-06-04T17:38:22.885Z,96203.25
2023-06-04T17:40:51.248Z,96187.84
2023-06-04T17:43:21.398Z,96198.16
2023-06-04T17:45:49.713Z,96192.56
2023-06-04T17:48:18.033Z,96196.31
2023-06-04T17:50:46.497Z,96198.72
2023-06-04T17:53:14.808Z,96202.66
2023-06-04T17:55:43.111Z,96203.09
2023-06-04T17:58:11.744Z,96198.66
2023-06-04T18:00:41.465Z,96192.91
2023-06-04T18:03:09.937Z,96196.09
2023-06-04T18:05:38.351Z,96198.41
2023-06-04T18:08:06.778Z,96197.06
2023-06-04T18:10:35.778Z,96199.56
2023-06-04T18:13:04.693Z,96196.97
2023-06-04T18:15:32.980Z,96202.78
2023-06-04T18:18:02.748Z,96201.97
2023-06-04T18:20:31.086Z,96203.13
2023-06-04T18:22:59.444Z,96202.22
2023-06-04T18:25:27.784Z,96208.72
2023-06-04T18:27:56.232Z,96206.53
2023-06-04T18:30:24.576Z,96208.38
2023-06-04T18:32:54.905Z,96212.81
2023-06-04T18:35:24.721Z,96210.47
2023-06-04T18:37:53.024Z,96209.69
2023-06-04T18:40:21.597Z,96222.53
2023-06-04T18:42:49.893Z,96217.53
2023-06-04T18:45:18.312Z,96213.31
2023-06-04T18:47:46.707Z,96210.66
2023-06-04T18:50:15.146Z,96212.25
2023-06-04T18:52:45.246Z,96214.66
2023-06-04T18:55:13.561Z,96220.06
2023-06-04T18:57:41.932Z,96219.47
2023-06-04T19:00:11.528Z,96218.06
2023-06-04T19:02:40.041Z,96229.06
2023-06-04T19:05:11.337Z,96228.59
2023-06-04T19:07:40.856Z,96227.47
2023-06-04T19:10:12.130Z,96227.44
2023-06-04T19:12:43.341Z,96230.59
2023-06-04T19:15:12.297Z,96229.44
2023-06-04T19:17:40.879Z,96230.19
2023-06-04T19:20:09.885Z,96233.56
2023-06-04T19:22:38.602Z,96232.31
2023-06-04T19:25:07.621Z,96242.16
2023-06-04T19:27:37.380Z,96239.59
2023-06-04T19:30:07.134Z,96243.50
2023-06-04T19:32:35.759Z,96246.13
2023-06-04T19:35:04.098Z,96249.00
2023-06-04T19:37:32.492Z,96257.50
2023-06-04T19:40:00.805Z,96253.88
2023-06-04T19:42:29.168Z,96253.25
2023-06-04T19:44:58.976Z,96263.88
2023-06-04T19:47:27.760Z,96269.63
2023-06-04T19:49:57.024Z,96267.63
2023-06-04T19:52:25.962Z,96270.38
2023-06-04T19:54:54.369Z,96270.97
2023-06-04T19:57:22.899Z,96270.22
2023-06-04T19:59:51.941Z,96267.63
2023-06-04T20:02:21.735Z,96273.59
2023-06-04T20:04:52.232Z,96281.75
2023-06-04T20:07:20.985Z,96276.16
2023-06-04T20:09:49.357Z,96275.94
2023-06-04T20:12:19.496Z,96283.22
2023-06-04T20:14:48.232Z,96277.91
2023-06-04T20:17:16.528Z,96274.19
2023-06-04T20:19:46.390Z,96284.44
2023-06-04T20:22:14.718Z,96287.38
2023-06-04T20:24:43.830Z,96285.28
2023-06-04T20:27:12.237Z,96286.09
2023-06-04T20:29:41.017Z,96285.59
2023-06-04T20:32:09.332Z,96290.16
2023-06-04T20:34:37.676Z,96292.34
2023-06-04T20:37:07.545Z,96285.38
2023-06-04T20:39:40.326Z,96291.25
2023-06-04T20:42:09.065Z,96284.56
2023-06-04T20:44:37.365Z,96295.84
2023-06-04T20:47:06.478Z,96296.66
2023-06-04T20:49:34.631Z,96297.44
2023-06-04T20:52:02.779Z,96294.19
2023-06-04T20:54:32.263Z,96306.28
2023-06-04T20:57:00.985Z,96295.25
2023-06-04T20:59:29.137Z,96292.56
2023-06-04T21:01:57.432Z,96295.47
2023-06-04T21:04:25.638Z,96298.13
2023-06-04T21:06:54.026Z,96305.31
2023-06-04T21:09:22.657Z,96304.78
2023-06-04T21:11:52.430Z,96306.06
2023-06-04T21:14:20.716Z,96313.84
2023-06-04T21:16:49.079Z,96313.53
2023-06-04T21:19:17.411Z,96308.97
2023-06-04T21:21:45.734Z,96303.03
2023-06-04T21:24:15.334Z,96313.19
2023-06-04T21:26:43.644Z,96303.25
2023-06-04T21:29:13.357Z,96312.31
2023-06-04T21:31:41.691Z,96307.47
2023-06-04T21:34:09.961Z,96309.81
2023-06-04T21:36:38.639Z,96307.38
2023-06-04T21:39:07.253Z,96299.28
2023-06-04T21:41:35.586Z,96304.88
2023-06-04T21:44:03.918Z,96302.44
2023-06-04T21:46:34.008Z,96308.00
2023-06-04T21:49:02.457Z,96306.91
2023-06-04T21:51:31.115Z,96298.03
2023-06-04T21:53:59.401Z,96302.78
2023-06-04T21:56:28.260Z,96301.41
2023-06-04T21:58:56.662Z,96305.63
2023-06-04T22:01:25.407Z,96297.34
2023-06-04T22:03:55.643Z,96299.09
2023-06-04T22:06:24.249Z,96305.97
2023-06-04T22:08:52.590Z,96297.94
2023-06-04T22:11:21.362Z,96305.06
2023-06-04T22:13:49.806Z,96305.84
2023-06-04T22:16:18.121Z,96306.03
2023-06-04T22:18:52.753Z,96296.34
2023-06-04T22:21:23.469Z,96296.56
2023-06-04T22:23:51.812Z,96291.16
2023-06-04T22:28:51.358Z,96293.47
2023-06-04T22:31:19.896Z,96288.63
2023-06-04T22:33:48.955Z,96284.06
2023-06-04T22:36:18.245Z,96286.72
2023-06-04T22:38:48.065Z,96286.16
2023-06-04T22:41:16.459Z,96289.31
2023-06-04T22:43:44.735Z,96287.97
2023-06-04T22:46:13.422Z,96280.47
2023-06-04T22:48:42.094Z,96287.09
2023-06-04T22:51:10.639Z,96281.72
2023-06-04T22:53:39.171Z,96285.69
2023-06-04T22:56:10.444Z,96278.44
2023-06-04T22:58:39.919Z,96271.16
2023-06-04T23:01:08.664Z,96270.03
2023-06-04T23:03:39.293Z,96273.22
2023-06-04T23:06:07.679Z,96269.16
2023-06-04T23:08:36.151Z,96267.56
2023-06-04T23:11:04.459Z,96265.66
2023-06-04T23:13:35.068Z,96264.56
2023-06-04T23:16:03.444Z,96266.38
2023-06-04T23:18:33.511Z,96266.06
2023-06-04T23:21:02.084Z,96255.09
2023-06-04T23:23:30.398Z,96259.84
2023-06-04T23:25:59.489Z,96257.19
2023-06-04T23:28:27.809Z,96247.00
2023-06-04T23:30:57.582Z,96248.81
2023-06-04T23:33:26.935Z,96248.25
2023-06-04T23:35:55.334Z,96243.97
2023-06-04T23:38:23.748Z,96246.31
2023-06-04T23:40:52.323Z,96248.69
2023-06-04T23:43:20.810Z,96246.50
2023-06-04T23:45:49.454Z,96248.06
2023-06-04T23:48:19.184Z,96249.09
2023-06-04T23:50:47.475Z,96248.78
2023-06-04T23:53:15.814Z,96242.88
2023-06-04T23:55:44.575Z,96249.59
2023-06-04T23:58:12.976Z,96251.69
